createdAt,value
2018-07-05T00:00:14.663Z,13.90
2018-07-05T00:02:54.339Z,13.80
2018-07-05T00:05:33.987Z,13.90
2018-07-05T00:08:14.294Z,13.90
2018-07-05T00:10:53.991Z,14.00
2018-07-05T00:13:33.855Z,14.00
2018-07-05T00:16:13.595Z,13.90
2018-07-05T00:18:53.212Z,13.90
2018-07-05T00:21:33.044Z,13.90
2018-07-05T00:26:46.798Z,13.80
2018-07-05T00:29:27.906Z,13.70
2018-07-05T00:32:07.655Z,13.60
2018-07-05T00:34:47.290Z,13.60
2018-07-05T00:37:27.146Z,13.70
2018-07-05T00:40:07.790Z,13.70
2018-07-05T00:42:48.028Z,13.80
2018-07-05T00:45:27.707Z,13.80
2018-07-05T00:48:07.523Z,13.80
2018-07-05T00:50:47.236Z,13.70
2018-07-05T00:53:26.875Z,13.70
2018-07-05T00:56:06.465Z,13.60
2018-07-05T00:58:47.785Z,13.60
2018-07-05T01:01:27.518Z,13.50
2018-07-05T01:04:07.207Z,13.60
2018-07-05T01:06:46.681Z,13.70
2018-07-05T01:09:26.172Z,13.80
2018-07-05T01:12:05.807Z,13.70
2018-07-05T01:14:45.343Z,13.70
2018-07-05T01:17:24.920Z,13.70
2018-07-05T01:20:04.472Z,13.70
2018-07-05T01:22:44.491Z,13.80
2018-07-05T01:25:24.072Z,13.80
2018-07-05T01:28:03.716Z,13.90
2018-07-05T01:30:43.862Z,13.90
2018-07-05T01:33:23.422Z,13.90
2018-07-05T01:36:03.118Z,14.00
2018-07-05T01:38:42.836Z,14.10
2018-07-05T01:41:22.411Z,14.00
2018-07-05T01:44:02.123Z,13.80
2018-07-05T01:46:42.267Z,13.70
2018-07-05T01:49:22.970Z,13.50
2018-07-05T01:52:02.539Z,13.40
2018-07-05T01:54:42.302Z,13.30
2018-07-05T01:57:22.184Z,13.20
2018-07-05T02:00:01.784Z,13.10
2018-07-05T02:02:41.405Z,13.10
2018-07-05T02:05:21.016Z,13.00
2018-07-05T02:08:01.443Z,13.00
2018-07-05T02:10:41.225Z,13.20
2018-07-05T02:13:23.126Z,13.30
2018-07-05T02:16:02.759Z,13.20
2018-07-05T02:18:42.488Z,13.20
2018-07-05T02:21:22.165Z,13.00
2018-07-05T02:24:01.924Z,13.00
2018-07-05T02:26:41.559Z,12.90
2018-07-05T02:29:21.124Z,12.90
2018-07-05T02:32:00.754Z,12.80
2018-07-05T02:34:40.461Z,12.70
2018-07-05T02:37:25.712Z,12.60
2018-07-05T02:40:05.448Z,12.60
2018-07-05T02:42:44.899Z,12.60
2018-07-05T02:45:24.692Z,12.60
2018-07-05T02:48:04.248Z,12.60
2018-07-05T02:50:43.875Z,12.60
2018-07-05T02:53:23.630Z,12.70
2018-07-05T02:56:03.410Z,12.80
2018-07-05T02:58:43.034Z,12.90
2018-07-05T03:01:22.744Z,12.90
2018-07-05T03:04:02.476Z,13.00
2018-07-05T03:06:42.183Z,12.90
2018-07-05T03:09:21.867Z,12.90
2018-07-05T03:12:01.980Z,12.90
2018-07-05T03:14:41.679Z,12.90
2018-07-05T03:17:21.372Z,12.90
2018-07-05T03:20:01.945Z,12.90
2018-07-05T03:22:41.515Z,13.00
2018-07-05T03:25:21.050Z,13.00
2018-07-05T03:28:00.722Z,13.00
2018-07-05T03:30:40.487Z,12.90
2018-07-05T03:33:20.088Z,12.80
2018-07-05T03:36:03.663Z,12.70
2018-07-05T03:38:43.959Z,12.70
2018-07-05T03:41:24.070Z,12.80
2018-07-05T03:46:37.237Z,12.90
2018-07-05T03:49:17.035Z,13.00
2018-07-05T03:51:56.697Z,13.10
2018-07-05T03:54:36.242Z,13.20
2018-07-05T03:57:15.949Z,13.30
2018-07-05T03:59:55.523Z,13.40
2018-07-05T04:02:35.068Z,13.50
2018-07-05T04:05:14.748Z,13.50
2018-07-05T04:07:54.405Z,13.60
2018-07-05T04:10:34.444Z,13.70
2018-07-05T04:13:14.072Z,13.80
2018-07-05T04:15:54.162Z,13.90
2018-07-05T04:18:33.651Z,14.00
2018-07-05T04:21:13.694Z,14.00
2018-07-05T04:23:56.029Z,14.00
2018-07-05T04:26:35.665Z,14.00
2018-07-05T04:29:15.368Z,13.90
2018-07-05T04:31:55.056Z,14.00
2018-07-05T04:34:35.124Z,14.10
2018-07-05T04:37:14.953Z,14.20
2018-07-05T04:39:54.791Z,14.30
2018-07-05T04:42:34.339Z,14.50
2018-07-05T04:45:13.755Z,14.70
2018-07-05T04:47:53.568Z,15.40
2018-07-05T04:50:34.286Z,16.90
2018-07-05T04:53:13.815Z,18.60
2018-07-05T04:55:54.013Z,19.90
2018-07-05T04:58:33.634Z,20.80
2018-07-05T05:01:13.173Z,21.40
2018-07-05T05:03:53.881Z,21.70
2018-07-05T05:06:33.547Z,22.00
2018-07-05T05:09:13.172Z,22.40
2018-07-05T05:11:53.223Z,22.80
2018-07-05T05:14:33.204Z,23.20
2018-07-05T05:17:12.982Z,23.60
2018-07-05T05:19:52.567Z,24.40
2018-07-05T05:22:32.275Z,24.90
2018-07-05T05:25:11.878Z,25.90
2018-07-05T05:27:52.712Z,26.70
2018-07-05T05:30:32.490Z,27.30
2018-07-05T05:33:12.182Z,27.70
2018-07-05T05:35:51.777Z,27.90
2018-07-05T05:38:32.011Z,27.80
2018-07-05T05:41:12.028Z,27.90
2018-07-05T05:43:52.092Z,27.90
2018-07-05T05:46:31.888Z,28.30
2018-07-05T05:49:12.060Z,28.70
2018-07-05T05:51:51.703Z,28.20
2018-07-05T05:54:31.343Z,28.10
2018-07-05T05:57:10.879Z,27.80
2018-07-05T05:59:50.495Z,27.30
2018-07-05T06:02:30.199Z,26.60
2018-07-05T06:05:10.906Z,26.20
2018-07-05T06:10:24.366Z,25.90
2018-07-05T06:13:04.363Z,25.60
2018-07-05T06:15:44.125Z,25.40
2018-07-05T06:18:24.430Z,25.10
2018-07-05T06:21:04.511Z,25.30
2018-07-05T06:23:44.215Z,25.50
2018-07-05T06:26:23.787Z,26.50
2018-07-05T06:29:03.888Z,27.00
2018-07-05T06:31:43.595Z,27.50
2018-07-05T06:34:23.403Z,27.90
2018-07-05T06:37:03.127Z,28.70
2018-07-05T06:39:42.884Z,29.20
2018-07-05T06:42:22.553Z,29.50
2018-07-05T06:45:02.240Z,28.10
2018-07-05T06:47:42.441Z,27.10
2018-07-05T06:50:21.959Z,26.10
2018-07-05T06:53:01.631Z,25.20
2018-07-05T06:55:41.936Z,24.80
2018-07-05T06:58:21.652Z,24.50
2018-07-05T07:01:01.616Z,24.20
2018-07-05T07:03:41.204Z,23.90
2018-07-05T07:06:20.794Z,24.10
2018-07-05T07:09:00.611Z,23.80
2018-07-05T07:11:40.390Z,23.40
2018-07-05T07:14:20.140Z,23.60
2018-07-05T07:17:00.192Z,23.90
2018-07-05T07:19:39.818Z,24.10
2018-07-05T07:22:20.728Z,24.70
2018-07-05T07:25:00.268Z,25.10
2018-07-05T07:27:40.260Z,25.80
2018-07-05T07:30:20.039Z,26.00
2018-07-05T07:32:59.673Z,26.00
2018-07-05T07:35:39.404Z,25.60
2018-07-05T07:38:18.992Z,25.60
2018-07-05T07:40:58.659Z,25.60
2018-07-05T07:43:25.912Z,25.20
2018-07-05T07:45:53.140Z,25.20
2018-07-05T07:48:20.360Z,24.50
2018-07-05T07:50:47.556Z,24.10
2018-07-05T07:53:14.806Z,23.70
2018-07-05T07:55:42.035Z,23.50
2018-07-05T07:58:09.297Z,23.40
2018-07-05T08:00:36.529Z,23.20
2018-07-05T08:03:03.725Z,23.00
2018-07-05T08:05:32.763Z,22.90
2018-07-05T08:07:59.994Z,22.90
2018-07-05T08:10:27.235Z,22.80
2018-07-05T08:12:54.481Z,22.80
2018-07-05T08:15:21.672Z,22.60
2018-07-05T08:17:49.666Z,22.60
2018-07-05T08:20:18.531Z,22.40
2018-07-05T08:22:45.771Z,22.60
2018-07-05T08:25:13.026Z,22.70
2018-07-05T08:27:40.276Z,22.60
2018-07-05T08:30:07.524Z,22.80
2018-07-05T08:32:34.791Z,23.10
2018-07-05T08:35:02.033Z,23.30
2018-07-05T08:37:30.032Z,23.40
2018-07-05T08:39:57.304Z,23.60
2018-07-05T08:42:24.527Z,23.80
2018-07-05T08:44:51.802Z,24.00
2018-07-05T08:47:19.022Z,24.10
2018-07-05T08:49:47.299Z,24.10
2018-07-05T08:52:14.501Z,24.30
2018-07-05T08:54:41.713Z,24.30
2018-07-05T08:57:09.467Z,24.70
2018-07-05T08:59:37.000Z,24.80
2018-07-05T09:02:04.215Z,24.90
2018-07-05T09:04:31.616Z,24.90
2018-07-05T09:06:58.842Z,25.00
2018-07-05T09:09:26.043Z,25.40
2018-07-05T09:11:53.914Z,25.80
2018-07-05T09:14:21.478Z,26.10
2018-07-05T09:16:48.755Z,26.20
2018-07-05T09:19:16.123Z,26.50
2018-07-05T09:21:43.331Z,26.80
2018-07-05T09:24:10.547Z,26.90
2018-07-05T09:26:37.878Z,27.10
2018-07-05T09:29:05.155Z,27.50
2018-07-05T09:31:32.436Z,27.50
2018-07-05T09:33:59.656Z,27.90
2018-07-05T09:36:26.881Z,28.50
2018-07-05T09:38:54.131Z,29.40
2018-07-05T09:41:21.355Z,30.00
2018-07-05T09:43:48.577Z,30.90
2018-07-05T09:46:15.819Z,30.90
2018-07-05T09:48:43.068Z,31.60
2018-07-05T09:51:10.356Z,32.20
2018-07-05T09:53:37.585Z,31.90
2018-07-05T09:56:05.015Z,31.70
2018-07-05T09:58:32.248Z,31.30
2018-07-05T10:00:59.447Z,31.00
2018-07-05T10:03:26.708Z,30.00
2018-07-05T10:05:53.899Z,28.90
2018-07-05T10:08:21.397Z,28.30
2018-07-05T10:13:16.522Z,27.40
2018-07-05T10:15:43.615Z,27.50
2018-07-05T10:18:10.852Z,27.30
2018-07-05T10:20:38.055Z,27.20
2018-07-05T10:23:05.279Z,26.90
2018-07-05T10:25:33.123Z,26.90
2018-07-05T10:28:00.321Z,27.10
2018-07-05T10:30:39.913Z,27.60
2018-07-05T10:33:19.515Z,28.20
2018-07-05T10:35:46.972Z,28.70
2018-07-05T10:38:14.775Z,29.20
2018-07-05T10:40:56.425Z,28.80
2018-07-05T10:43:36.163Z,28.60
2018-07-05T10:46:16.038Z,28.30
2018-07-05T10:48:55.595Z,28.70
2018-07-05T10:51:35.115Z,29.10
2018-07-05T10:54:14.797Z,29.30
2018-07-05T10:56:54.506Z,29.10
2018-07-05T10:59:34.069Z,29.30
2018-07-05T11:02:14.039Z,29.40
2018-07-05T11:04:53.645Z,29.70
2018-07-05T11:07:33.451Z,30.10
2018-07-05T11:10:13.160Z,31.10
2018-07-05T11:12:53.150Z,31.30
2018-07-05T11:15:32.807Z,31.30
2018-07-05T11:20:56.981Z,31.30
2018-07-05T11:23:36.610Z,31.10
2018-07-05T11:26:16.413Z,31.00
2018-07-05T11:28:56.056Z,31.00
2018-07-05T11:31:35.790Z,31.30
2018-07-05T11:34:15.451Z,30.90
2018-07-05T11:36:55.122Z,30.40
2018-07-05T11:39:34.950Z,30.30
2018-07-05T11:42:14.703Z,30.70
2018-07-05T11:44:54.816Z,31.00
2018-07-05T11:47:35.088Z,30.90
2018-07-05T11:50:14.757Z,30.90
2018-07-05T11:52:54.494Z,30.40
2018-07-05T11:55:34.275Z,30.10
2018-07-05T11:58:14.089Z,30.50
2018-07-05T12:00:53.570Z,30.90
2018-07-05T12:03:33.237Z,30.90
2018-07-05T12:06:12.912Z,30.60
2018-07-05T12:08:52.757Z,29.70
2018-07-05T12:11:32.599Z,29.50
2018-07-05T12:14:12.651Z,29.60
2018-07-05T12:16:53.016Z,29.60
2018-07-05T12:19:32.656Z,30.00
2018-07-05T12:22:12.679Z,29.90
2018-07-05T12:24:54.086Z,29.70
2018-07-05T12:27:33.756Z,29.50
2018-07-05T12:30:13.766Z,29.20
2018-07-05T12:32:53.314Z,29.20
2018-07-05T12:35:33.064Z,28.60
2018-07-05T12:38:12.800Z,28.10
2018-07-05T12:40:52.425Z,28.00
2018-07-05T12:43:31.982Z,28.10
2018-07-05T12:46:12.281Z,28.50
2018-07-05T12:48:51.927Z,28.70
2018-07-05T12:51:31.664Z,28.80
2018-07-05T12:54:11.964Z,28.50
2018-07-05T12:56:51.660Z,28.40
2018-07-05T12:59:32.195Z,28.30
2018-07-05T13:02:12.525Z,27.70
2018-07-05T13:04:52.031Z,27.30
2018-07-05T13:07:31.758Z,27.20
2018-07-05T13:10:11.498Z,26.70
2018-07-05T13:12:51.430Z,27.10
2018-07-05T13:15:31.072Z,27.20
2018-07-05T13:18:10.804Z,26.90
2018-07-05T13:20:50.334Z,26.80
2018-07-05T13:23:29.887Z,26.90
2018-07-05T13:26:10.227Z,27.30
2018-07-05T13:28:49.991Z,27.30
2018-07-05T13:31:29.671Z,27.30
2018-07-05T13:34:09.139Z,27.30
2018-07-05T13:36:48.904Z,27.40
2018-07-05T13:39:28.973Z,27.60
2018-07-05T13:42:08.738Z,27.70
2018-07-05T13:44:49.230Z,27.60
2018-07-05T13:47:29.366Z,27.50
2018-07-05T13:50:08.890Z,27.40
2018-07-05T13:52:48.522Z,27.30
2018-07-05T13:55:28.111Z,27.40
2018-07-05T13:58:08.100Z,27.60
2018-07-05T14:00:47.719Z,27.60
2018-07-05T14:03:27.577Z,27.70
2018-07-05T14:06:07.134Z,27.80
2018-07-05T14:08:46.654Z,27.40
2018-07-05T14:11:26.374Z,27.40
2018-07-05T14:14:06.099Z,27.40
2018-07-05T14:16:45.760Z,27.30
2018-07-05T14:19:25.502Z,27.00
2018-07-05T14:22:05.171Z,26.40
2018-07-05T14:24:44.924Z,26.20
2018-07-05T14:27:24.459Z,25.90
2018-07-05T14:30:04.711Z,26.20
2018-07-05T14:32:44.421Z,26.50
2018-07-05T14:35:24.712Z,26.80
2018-07-05T14:38:04.200Z,27.10
2018-07-05T14:40:44.651Z,27.40
2018-07-05T14:43:24.263Z,27.50
2018-07-05T14:46:03.788Z,27.40
2018-07-05T14:48:43.533Z,27.30
2018-07-05T14:51:23.748Z,27.30
2018-07-05T14:54:03.447Z,27.40
2018-07-05T14:56:42.985Z,27.00
2018-07-05T14:59:23.350Z,26.60
2018-07-05T15:02:02.933Z,26.50
2018-07-05T15:04:42.616Z,26.90
2018-07-05T15:07:22.376Z,27.20
2018-07-05T15:10:02.122Z,27.50
2018-07-05T15:12:42.579Z,27.60
2018-07-05T15:15:22.654Z,27.80
2018-07-05T15:18:02.353Z,28.00
2018-07-05T15:20:42.009Z,28.10
2018-07-05T15:23:21.767Z,27.90
2018-07-05T15:26:01.540Z,28.00
2018-07-05T15:28:41.088Z,27.80
2018-07-05T15:31:20.772Z,27.20
2018-07-05T15:34:00.425Z,27.00
2018-07-05T15:36:40.050Z,27.30
2018-07-05T15:39:19.760Z,27.40
2018-07-05T15:41:59.548Z,27.20
2018-07-05T15:44:39.402Z,27.20
2018-07-05T15:47:19.124Z,27.10
2018-07-05T15:52:32.600Z,27.00
2018-07-05T15:55:12.325Z,27.00
2018-07-05T15:57:51.960Z,26.90
2018-07-05T16:00:31.716Z,26.70
2018-07-05T16:03:12.508Z,26.80
2018-07-05T16:05:53.787Z,26.70
2018-07-05T16:08:33.455Z,26.70
2018-07-05T16:11:13.202Z,26.70
2018-07-05T16:13:52.896Z,26.70
2018-07-05T16:16:32.703Z,26.80
2018-07-05T16:19:12.550Z,26.50
2018-07-05T16:21:52.269Z,26.50
2018-07-05T16:24:32.017Z,26.60
2018-07-05T16:27:11.784Z,26.30
2018-07-05T16:29:51.599Z,26.60
2018-07-05T16:32:31.303Z,26.90
2018-07-05T16:35:10.842Z,27.40
2018-07-05T16:37:50.555Z,28.20
2018-07-05T16:40:30.216Z,28.40
2018-07-05T16:43:10.059Z,28.20
2018-07-05T16:45:50.708Z,27.90
2018-07-05T16:48:30.369Z,27.60
2018-07-05T16:51:10.764Z,27.20
2018-07-05T16:53:50.540Z,26.80
2018-07-05T16:56:30.261Z,26.50
2018-07-05T16:59:09.787Z,26.20
2018-07-05T17:01:49.771Z,25.90
2018-07-05T17:04:29.419Z,25.70
2018-07-05T17:07:09.215Z,25.50
2018-07-05T17:09:48.924Z,25.40
2018-07-05T17:12:28.988Z,25.30
2018-07-05T17:15:08.795Z,25.10
2018-07-05T17:17:48.857Z,25.20
2018-07-05T17:20:28.394Z,25.20
2018-07-05T17:23:08.004Z,25.20
2018-07-05T17:25:47.836Z,25.10
2018-07-05T17:28:27.731Z,24.90
2018-07-05T17:31:07.581Z,24.90
2018-07-05T17:33:47.223Z,24.80
2018-07-05T17:36:27.806Z,24.90
2018-07-05T17:39:07.577Z,24.90
2018-07-05T17:41:47.690Z,24.80
2018-07-05T17:44:27.415Z,24.80
2018-07-05T17:47:07.592Z,24.90
2018-07-05T17:49:47.294Z,24.90
2018-07-05T17:52:27.487Z,25.10
2018-07-05T17:55:07.075Z,25.10
2018-07-05T17:57:46.793Z,25.10
2018-07-05T18:00:26.476Z,25.10
2018-07-05T18:03:06.287Z,25.00
2018-07-05T18:05:45.896Z,24.90
2018-07-05T18:08:25.668Z,24.90
2018-07-05T18:11:05.319Z,24.90
2018-07-05T18:13:45.048Z,24.90
2018-07-05T18:16:25.477Z,24.80
2018-07-05T18:19:05.807Z,24.80
2018-07-05T18:21:45.375Z,24.80
2018-07-05T18:24:25.826Z,24.70
2018-07-05T18:27:05.997Z,24.80
2018-07-05T18:29:45.543Z,24.80
2018-07-05T18:32:25.216Z,24.90
2018-07-05T18:35:04.943Z,24.90
2018-07-05T18:37:45.514Z,24.80
2018-07-05T18:40:25.118Z,24.80
2018-07-05T18:43:04.677Z,24.80
2018-07-05T18:45:44.468Z,24.60
2018-07-05T18:48:24.272Z,24.50
2018-07-05T18:51:03.955Z,24.30
2018-07-05T18:53:43.784Z,24.10
2018-07-05T18:56:23.324Z,24.00
2018-07-05T18:59:02.945Z,23.80
2018-07-05T19:01:43.616Z,23.70
2018-07-05T19:04:23.226Z,23.50
2018-07-05T19:07:03.375Z,23.40
2018-07-05T19:09:43.135Z,23.30
2018-07-05T19:12:22.785Z,23.20
2018-07-05T19:15:02.495Z,23.10
2018-07-05T19:17:42.221Z,23.00
2018-07-05T19:20:21.698Z,22.90
2018-07-05T19:23:01.279Z,22.80
2018-07-05T19:25:41.601Z,22.80
2018-07-05T19:28:21.300Z,22.60
2018-07-05T19:31:00.980Z,22.60
2018-07-05T19:33:40.646Z,22.40
2018-07-05T19:36:20.423Z,22.30
2018-07-05T19:39:00.033Z,22.20
2018-07-05T19:41:39.792Z,22.10
2018-07-05T19:44:20.470Z,22.00
2018-07-05T19:47:00.370Z,21.90
2018-07-05T19:49:40.007Z,21.80
2018-07-05T19:52:20.389Z,21.70
2018-07-05T19:55:00.229Z,21.60
2018-07-05T19:57:39.800Z,21.50
2018-07-05T20:00:19.500Z,21.40
2018-07-05T20:02:59.551Z,21.40
2018-07-05T20:05:39.200Z,21.30
2018-07-05T20:08:18.987Z,21.20
2018-07-05T20:11:02.626Z,21.10
2018-07-05T20:13:42.376Z,21.00
2018-07-05T20:16:22.121Z,20.90
2018-07-05T20:19:02.069Z,20.90
2018-07-05T20:21:42.170Z,20.80
2018-07-05T20:24:22.478Z,20.60
2018-07-05T20:27:03.076Z,20.60
2018-07-05T20:29:42.885Z,20.50
2018-07-05T20:32:22.526Z,20.50
2018-07-05T20:35:02.092Z,20.40
2018-07-05T20:37:41.563Z,20.30
2018-07-05T20:40:21.122Z,20.30
2018-07-05T20:43:00.623Z,20.20
2018-07-05T20:45:40.196Z,20.20
2018-07-05T20:50:53.761Z,20.00
2018-07-05T20:53:33.335Z,19.90
2018-07-05T20:56:13.369Z,19.90
2018-07-05T20:58:52.967Z,19.90
2018-07-05T21:01:32.584Z,19.80
2018-07-05T21:04:12.213Z,19.80
2018-07-05T21:06:52.238Z,19.80
2018-07-05T21:09:31.790Z,19.80
2018-07-05T21:12:11.491Z,19.80
2018-07-05T21:14:50.927Z,19.80
2018-07-05T21:17:31.128Z,19.70
2018-07-05T21:20:11.203Z,19.70
2018-07-05T21:22:52.484Z,19.60
2018-07-05T21:25:32.133Z,19.60
2018-07-05T21:28:11.875Z,19.50
2018-07-05T21:30:51.878Z,19.50
2018-07-05T21:33:31.339Z,19.50
2018-07-05T21:36:11.352Z,19.40
2018-07-05T21:38:51.064Z,19.40
2018-07-05T21:41:30.814Z,19.30
2018-07-05T21:44:10.443Z,19.30
2018-07-05T21:46:50.191Z,19.30
2018-07-05T21:49:30.224Z,19.20
2018-07-05T21:52:09.868Z,19.20
2018-07-05T21:54:49.601Z,19.20
2018-07-05T21:57:30.138Z,19.10
2018-07-05T22:00:10.721Z,19.10
2018-07-05T22:02:50.300Z,19.10
2018-07-05T22:05:29.828Z,19.10
2018-07-05T22:08:09.628Z,19.10
2018-07-05T22:10:49.968Z,19.10
2018-07-05T22:13:30.127Z,19.00
2018-07-05T22:16:09.729Z,19.00
2018-07-05T22:18:55.051Z,19.00
2018-07-05T22:21:39.704Z,19.00
2018-07-05T22:24:25.012Z,18.90
2018-07-05T22:27:04.810Z,18.80
2018-07-05T22:29:50.571Z,18.80
2018-07-05T22:32:30.225Z,18.80
2018-07-05T22:35:09.930Z,18.70
2018-07-05T22:37:49.676Z,18.70
2018-07-05T22:40:29.182Z,18.70
2018-07-05T22:43:08.704Z,18.60
2018-07-05T22:45:48.459Z,18.60
2018-07-05T22:48:28.300Z,18.60
2018-07-05T22:51:07.988Z,18.60
2018-07-05T22:53:47.829Z,18.50
2018-07-05T22:56:27.344Z,18.50
2018-07-05T22:59:07.047Z,18.50
2018-07-05T23:01:46.876Z,18.40
2018-07-05T23:04:26.502Z,18.40
2018-07-05T23:07:06.286Z,18.40
2018-07-05T23:09:46.083Z,18.30
2018-07-05T23:12:25.765Z,18.30
2018-07-05T23:15:05.392Z,18.30
2018-07-05T23:17:44.930Z,18.30
2018-07-05T23:20:24.629Z,18.20
2018-07-05T23:23:04.356Z,18.20
2018-07-05T23:25:44.252Z,18.20
2018-07-05T23:28:24.234Z,18.20
2018-07-05T23:31:04.794Z,18.20
2018-07-05T23:33:44.299Z,18.20
2018-07-05T23:36:24.032Z,18.10
2018-07-05T23:39:04.891Z,18.10
2018-07-05T23:41:44.603Z,18.10
2018-07-05T23:44:24.335Z,18.10
2018-07-05T23:47:04.083Z,18.20
2018-07-05T23:49:43.833Z,18.20
2018-07-05T23:52:23.527Z,18.20
2018-07-05T23:55:03.117Z,18.20
2018-07-05T23:57:42.918Z,18.20
